sensor_id;sensor_type;location;lat;lon;timestamp;P1;durP1;ratioP1;P2;durP2;ratioP2
16727;SDS011;8482;54.396;18.590;2023-11-21T00:00:18;4.97;;;2.73;;
16727;SDS011;8482;54.396;18.590;2023-11-21T00:02:45;5.93;;;2.90;;
16727;SDS011;8482;54.396;18.590;2023-11-21T00:05:11;8.63;;;3.47;;
16727;SDS011;8482;54.396;18.590;2023-11-21T00:07:42;7.07;;;3.23;;
16727;SDS011;8482;54.396;18.590;2023-11-21T00:10:09;6.77;;;3.20;;
16727;SDS011;8482;54.396;18.590;2023-11-21T00:12:36;4.63;;;2.63;;
16727;SDS011;8482;54.396;18.590;2023-11-21T00:15:02;6.00;;;2.87;;
16727;SDS011;8482;54.396;18.590;2023-11-21T00:17:34;6.17;;;3.10;;
16727;SDS011;8482;54.396;18.590;2023-11-21T00:20:00;6.27;;;2.73;;
16727;SDS011;8482;54.396;18.590;2023-11-21T00:22:26;5.63;;;2.90;;
16727;SDS011;8482;54.396;18.590;2023-11-21T00:24:51;6.23;;;3.00;;
16727;SDS011;8482;54.396;18.590;2023-11-21T00:27:17;5.93;;;3.03;;
16727;SDS011;8482;54.396;18.590;2023-11-21T00:29:43;6.83;;;3.10;;
16727;SDS011;8482;54.396;18.590;2023-11-21T00:32:09;7.37;;;3.03;;
16727;SDS011;8482;54.396;18.590;2023-11-21T00:34:34;6.10;;;3.13;;
16727;SDS011;8482;54.396;18.590;2023-11-21T00:37:00;6.90;;;3.10;;
16727;SDS011;8482;54.396;18.590;2023-11-21T00:39:27;7.33;;;2.70;;
16727;SDS011;8482;54.396;18.590;2023-11-21T00:41:53;6.20;;;3.00;;
16727;SDS011;8482;54.396;18.590;2023-11-21T00:44:19;7.43;;;3.70;;
16727;SDS011;8482;54.396;18.590;2023-11-21T00:46:45;6.67;;;3.20;;
16727;SDS011;8482;54.396;18.590;2023-11-21T00:49:11;5.97;;;2.87;;
16727;SDS011;8482;54.396;18.590;2023-11-21T00:51:36;6.10;;;3.10;;
16727;SDS011;8482;54.396;18.590;2023-11-21T00:54:02;6.73;;;2.70;;
16727;SDS011;8482;54.396;18.590;2023-11-21T00:56:28;5.50;;;2.83;;
16727;SDS011;8482;54.396;18.590;2023-11-21T00:58:54;5.27;;;2.70;;
16727;SDS011;8482;54.396;18.590;2023-11-21T01:01:20;6.17;;;2.60;;
16727;SDS011;8482;54.396;18.590;2023-11-21T01:03:47;5.23;;;2.50;;
16727;SDS011;8482;54.396;18.590;2023-11-21T01:06:14;7.40;;;3.13;;
16727;SDS011;8482;54.396;18.590;2023-11-21T01:08:40;8.33;;;3.03;;
16727;SDS011;8482;54.396;18.590;2023-11-21T01:11:06;5.07;;;3.10;;
16727;SDS011;8482;54.396;18.590;2023-11-21T01:13:37;5.57;;;2.77;;
16727;SDS011;8482;54.396;18.590;2023-11-21T01:16:04;7.50;;;3.17;;
16727;SDS011;8482;54.396;18.590;2023-11-21T01:18:31;6.30;;;2.63;;
16727;SDS011;8482;54.396;18.590;2023-11-21T01:20:58;5.23;;;2.73;;
16727;SDS011;8482;54.396;18.590;2023-11-21T01:23:25;6.40;;;3.07;;
16727;SDS011;8482;54.396;18.590;2023-11-21T01:25:52;6.13;;;2.60;;
16727;SDS011;8482;54.396;18.590;2023-11-21T01:28:20;7.00;;;2.87;;
16727;SDS011;8482;54.396;18.590;2023-11-21T01:30:47;5.73;;;2.87;;
16727;SDS011;8482;54.396;18.590;2023-11-21T01:33:14;7.27;;;2.87;;
16727;SDS011;8482;54.396;18.590;2023-11-21T01:35:40;6.80;;;2.90;;
16727;SDS011;8482;54.396;18.590;2023-11-21T01:38:07;5.53;;;2.63;;
16727;SDS011;8482;54.396;18.590;2023-11-21T01:40:34;5.77;;;2.93;;
16727;SDS011;8482;54.396;18.590;2023-11-21T01:43:00;5.87;;;2.73;;
16727;SDS011;8482;54.396;18.590;2023-11-21T01:45:29;7.73;;;3.40;;
16727;SDS011;8482;54.396;18.590;2023-11-21T01:47:58;6.57;;;2.80;;
16727;SDS011;8482;54.396;18.590;2023-11-21T01:50:25;5.07;;;2.50;;
16727;SDS011;8482;54.396;18.590;2023-11-21T01:52:53;6.40;;;2.80;;
16727;SDS011;8482;54.396;18.590;2023-11-21T01:55:19;5.40;;;2.57;;
16727;SDS011;8482;54.396;18.590;2023-11-21T01:57:45;7.27;;;3.00;;
16727;SDS011;8482;54.396;18.590;2023-11-21T02:00:12;6.80;;;2.53;;
16727;SDS011;8482;54.396;18.590;2023-11-21T02:02:43;6.00;;;2.70;;
16727;SDS011;8482;54.396;18.590;2023-11-21T02:05:11;5.70;;;2.53;;
16727;SDS011;8482;54.396;18.590;2023-11-21T02:07:39;5.40;;;2.73;;
16727;SDS011;8482;54.396;18.590;2023-11-21T02:10:07;6.17;;;2.43;;
16727;SDS011;8482;54.396;18.590;2023-11-21T02:12:34;5.00;;;2.60;;
16727;SDS011;8482;54.396;18.590;2023-11-21T02:15:03;5.17;;;2.50;;
16727;SDS011;8482;54.396;18.590;2023-11-21T02:17:34;6.07;;;2.40;;
16727;SDS011;8482;54.396;18.590;2023-11-21T02:20:01;4.93;;;2.50;;
16727;SDS011;8482;54.396;18.590;2023-11-21T02:22:29;6.50;;;3.10;;
16727;SDS011;8482;54.396;18.590;2023-11-21T02:25:03;5.40;;;2.50;;
16727;SDS011;8482;54.396;18.590;2023-11-21T02:27:29;6.00;;;3.37;;
16727;SDS011;8482;54.396;18.590;2023-11-21T02:29:55;5.17;;;2.33;;
16727;SDS011;8482;54.396;18.590;2023-11-21T02:32:21;6.10;;;2.70;;
16727;SDS011;8482;54.396;18.590;2023-11-21T02:34:48;5.50;;;2.73;;
16727;SDS011;8482;54.396;18.590;2023-11-21T02:37:15;5.23;;;2.57;;
16727;SDS011;8482;54.396;18.590;2023-11-21T02:39:40;4.90;;;2.60;;
16727;SDS011;8482;54.396;18.590;2023-11-21T02:42:06;5.27;;;2.57;;
16727;SDS011;8482;54.396;18.590;2023-11-21T02:44:32;5.50;;;2.50;;
16727;SDS011;8482;54.396;18.590;2023-11-21T02:46:58;5.20;;;2.60;;
16727;SDS011;8482;54.396;18.590;2023-11-21T02:49:25;4.77;;;2.30;;
16727;SDS011;8482;54.396;18.590;2023-11-21T02:51:53;4.37;;;2.40;;
16727;SDS011;8482;54.396;18.590;2023-11-21T02:54:20;5.17;;;2.63;;
16727;SDS011;8482;54.396;18.590;2023-11-21T02:56:47;4.77;;;2.47;;
16727;SDS011;8482;54.396;18.590;2023-11-21T02:59:14;4.47;;;2.23;;
16727;SDS011;8482;54.396;18.590;2023-11-21T03:01:41;5.07;;;2.57;;
16727;SDS011;8482;54.396;18.590;2023-11-21T03:04:07;4.53;;;2.37;;
16727;SDS011;8482;54.396;18.590;2023-11-21T03:06:33;5.77;;;2.70;;
16727;SDS011;8482;54.396;18.590;2023-11-21T03:08:59;4.90;;;2.50;;
16727;SDS011;8482;54.396;18.590;2023-11-21T03:11:25;6.03;;;2.83;;
16727;SDS011;8482;54.396;18.590;2023-11-21T03:13:51;4.87;;;2.77;;
16727;SDS011;8482;54.396;18.590;2023-11-21T03:16:18;5.10;;;2.40;;
16727;SDS011;8482;54.396;18.590;2023-11-21T03:18:44;6.57;;;2.80;;
16727;SDS011;8482;54.396;18.590;2023-11-21T03:21:10;5.10;;;2.23;;
16727;SDS011;8482;54.396;18.590;2023-11-21T03:23:37;4.50;;;2.40;;
16727;SDS011;8482;54.396;18.590;2023-11-21T03:26:03;5.90;;;2.57;;
16727;SDS011;8482;54.396;18.590;2023-11-21T03:28:29;6.13;;;2.13;;
16727;SDS011;8482;54.396;18.590;2023-11-21T03:30:55;4.57;;;2.30;;
16727;SDS011;8482;54.396;18.590;2023-11-21T03:33:21;4.80;;;1.93;;
16727;SDS011;8482;54.396;18.590;2023-11-21T03:35:47;4.83;;;2.30;;
16727;SDS011;8482;54.396;18.590;2023-11-21T03:38:14;5.67;;;2.53;;
16727;SDS011;8482;54.396;18.590;2023-11-21T03:40:41;4.03;;;2.17;;
16727;SDS011;8482;54.396;18.590;2023-11-21T03:43:07;6.03;;;2.67;;
16727;SDS011;8482;54.396;18.590;2023-11-21T03:45:33;4.53;;;2.40;;
16727;SDS011;8482;54.396;18.590;2023-11-21T03:47:59;4.53;;;2.30;;
16727;SDS011;8482;54.396;18.590;2023-11-21T03:50:26;5.07;;;2.60;;
16727;SDS011;8482;54.396;18.590;2023-11-21T03:52:54;5.37;;;2.40;;
16727;SDS011;8482;54.396;18.590;2023-11-21T03:55:20;4.93;;;2.40;;
16727;SDS011;8482;54.396;18.590;2023-11-21T03:57:45;4.40;;;2.13;;
16727;SDS011;8482;54.396;18.590;2023-11-21T04:00:11;4.67;;;2.20;;
16727;SDS011;8482;54.396;18.590;2023-11-21T04:02:37;5.17;;;2.67;;
16727;SDS011;8482;54.396;18.590;2023-11-21T04:05:04;5.37;;;2.27;;
16727;SDS011;8482;54.396;18.590;2023-11-21T04:07:32;6.00;;;2.80;;
16727;SDS011;8482;54.396;18.590;2023-11-21T04:09:59;5.03;;;2.50;;
16727;SDS011;8482;54.396;18.590;2023-11-21T04:12:25;6.27;;;2.83;;
16727;SDS011;8482;54.396;18.590;2023-11-21T04:14:51;5.13;;;2.50;;
16727;SDS011;8482;54.396;18.590;2023-11-21T04:17:20;5.37;;;2.60;;
16727;SDS011;8482;54.396;18.590;2023-11-21T04:19:46;5.93;;;2.53;;
16727;SDS011;8482;54.396;18.590;2023-11-21T04:22:12;4.53;;;2.80;;
16727;SDS011;8482;54.396;18.590;2023-11-21T04:24:38;5.10;;;2.43;;
16727;SDS011;8482;54.396;18.590;2023-11-21T04:27:03;7.27;;;3.07;;
16727;SDS011;8482;54.396;18.590;2023-11-21T04:29:29;6.73;;;2.87;;
16727;SDS011;8482;54.396;18.590;2023-11-21T04:31:55;6.10;;;2.70;;
16727;SDS011;8482;54.396;18.590;2023-11-21T04:34:21;5.37;;;2.73;;
16727;SDS011;8482;54.396;18.590;2023-11-21T04:36:47;5.07;;;2.30;;
16727;SDS011;8482;54.396;18.590;2023-11-21T04:39:13;4.30;;;2.40;;
16727;SDS011;8482;54.396;18.590;2023-11-21T04:41:38;6.03;;;2.37;;
16727;SDS011;8482;54.396;18.590;2023-11-21T04:44:05;5.73;;;2.73;;
16727;SDS011;8482;54.396;18.590;2023-11-21T04:46:31;7.03;;;2.80;;
16727;SDS011;8482;54.396;18.590;2023-11-21T04:48:58;5.53;;;2.70;;
16727;SDS011;8482;54.396;18.590;2023-11-21T04:51:23;5.07;;;2.47;;
16727;SDS011;8482;54.396;18.590;2023-11-21T04:53:49;5.03;;;2.50;;
16727;SDS011;8482;54.396;18.590;2023-11-21T04:56:15;6.53;;;2.70;;
16727;SDS011;8482;54.396;18.590;2023-11-21T04:58:41;5.13;;;2.80;;
16727;SDS011;8482;54.396;18.590;2023-11-21T05:01:07;4.43;;;2.27;;
16727;SDS011;8482;54.396;18.590;2023-11-21T05:03:33;4.40;;;2.40;;
16727;SDS011;8482;54.396;18.590;2023-11-21T05:05:59;5.47;;;2.50;;
16727;SDS011;8482;54.396;18.590;2023-11-21T05:08:25;4.30;;;2.27;;
16727;SDS011;8482;54.396;18.590;2023-11-21T05:10:52;5.03;;;2.37;;
16727;SDS011;8482;54.396;18.590;2023-11-21T05:13:18;4.80;;;2.57;;
16727;SDS011;8482;54.396;18.590;2023-11-21T05:15:45;6.13;;;3.10;;
16727;SDS011;8482;54.396;18.590;2023-11-21T05:18:11;4.13;;;2.33;;
16727;SDS011;8482;54.396;18.590;2023-11-21T05:20:38;5.73;;;2.73;;
16727;SDS011;8482;54.396;18.590;2023-11-21T05:23:05;5.83;;;2.93;;
16727;SDS011;8482;54.396;18.590;2023-11-21T05:25:33;5.10;;;2.50;;
16727;SDS011;8482;54.396;18.590;2023-11-21T05:27:59;4.77;;;2.30;;
16727;SDS011;8482;54.396;18.590;2023-11-21T05:30:26;5.07;;;2.47;;
16727;SDS011;8482;54.396;18.590;2023-11-21T05:32:53;6.93;;;2.67;;
16727;SDS011;8482;54.396;18.590;2023-11-21T05:35:19;5.77;;;2.97;;
16727;SDS011;8482;54.396;18.590;2023-11-21T05:37:47;5.57;;;2.80;;
16727;SDS011;8482;54.396;18.590;2023-11-21T05:40:13;6.20;;;2.77;;
16727;SDS011;8482;54.396;18.590;2023-11-21T05:42:40;4.87;;;2.50;;
16727;SDS011;8482;54.396;18.590;2023-11-21T05:45:06;5.03;;;2.67;;
16727;SDS011;8482;54.396;18.590;2023-11-21T05:47:37;5.77;;;2.90;;
16727;SDS011;8482;54.396;18.590;2023-11-21T05:50:08;5.63;;;2.90;;
16727;SDS011;8482;54.396;18.590;2023-11-21T05:52:37;4.97;;;2.40;;
16727;SDS011;8482;54.396;18.590;2023-11-21T05:55:04;6.73;;;2.43;;
16727;SDS011;8482;54.396;18.590;2023-11-21T05:57:37;5.93;;;3.10;;
16727;SDS011;8482;54.396;18.590;2023-11-21T06:00:04;5.97;;;2.80;;
16727;SDS011;8482;54.396;18.590;2023-11-21T06:02:39;5.60;;;3.03;;
16727;SDS011;8482;54.396;18.590;2023-11-21T06:05:08;6.30;;;2.33;;
16727;SDS011;8482;54.396;18.590;2023-11-21T06:07:35;6.40;;;2.53;;
16727;SDS011;8482;54.396;18.590;2023-11-21T06:10:02;4.47;;;2.20;;
16727;SDS011;8482;54.396;18.590;2023-11-21T06:12:35;5.10;;;2.30;;
16727;SDS011;8482;54.396;18.590;2023-11-21T06:15:04;4.53;;;2.43;;
16727;SDS011;8482;54.396;18.590;2023-11-21T06:17:33;4.33;;;2.30;;
16727;SDS011;8482;54.396;18.590;2023-11-21T06:20:04;4.33;;;2.27;;
16727;SDS011;8482;54.396;18.590;2023-11-21T06:22:36;5.60;;;2.67;;
16727;SDS011;8482;54.396;18.590;2023-11-21T06:25:06;5.13;;;2.50;;
16727;SDS011;8482;54.396;18.590;2023-11-21T06:27:34;5.60;;;2.70;;
16727;SDS011;8482;54.396;18.590;2023-11-21T06:30:07;5.63;;;2.17;;
16727;SDS011;8482;54.396;18.590;2023-11-21T06:32:34;4.80;;;2.63;;
16727;SDS011;8482;54.396;18.590;2023-11-21T06:35:02;5.00;;;2.30;;
16727;SDS011;8482;54.396;18.590;2023-11-21T06:37:30;4.60;;;2.17;;
16727;SDS011;8482;54.396;18.590;2023-11-21T06:39:57;4.43;;;2.23;;
16727;SDS011;8482;54.396;18.590;2023-11-21T06:42:24;4.40;;;2.40;;
16727;SDS011;8482;54.396;18.590;2023-11-21T06:44:50;3.97;;;2.10;;
16727;SDS011;8482;54.396;18.590;2023-11-21T06:47:17;3.10;;;1.73;;
16727;SDS011;8482;54.396;18.590;2023-11-21T06:49:45;4.53;;;2.20;;
16727;SDS011;8482;54.396;18.590;2023-11-21T06:52:14;4.17;;;2.00;;
16727;SDS011;8482;54.396;18.590;2023-11-21T06:54:40;5.67;;;2.57;;
16727;SDS011;8482;54.396;18.590;2023-11-21T06:57:06;5.10;;;2.37;;
16727;SDS011;8482;54.396;18.590;2023-11-21T06:59:32;5.90;;;2.90;;
16727;SDS011;8482;54.396;18.590;2023-11-21T07:01:58;5.77;;;2.70;;
16727;SDS011;8482;54.396;18.590;2023-11-21T07:04:24;4.50;;;2.40;;
16727;SDS011;8482;54.396;18.590;2023-11-21T07:06:53;4.53;;;2.20;;
16727;SDS011;8482;54.396;18.590;2023-11-21T07:09:19;4.27;;;2.30;;
16727;SDS011;8482;54.396;18.590;2023-11-21T07:11:50;3.67;;;1.97;;
16727;SDS011;8482;54.396;18.590;2023-11-21T07:14:17;3.73;;;2.27;;
16727;SDS011;8482;54.396;18.590;2023-11-21T07:16:44;4.97;;;2.10;;
16727;SDS011;8482;54.396;18.590;2023-11-21T07:19:11;4.87;;;1.93;;
16727;SDS011;8482;54.396;18.590;2023-11-21T07:21:38;4.27;;;1.83;;
16727;SDS011;8482;54.396;18.590;2023-11-21T07:24:05;2.97;;;1.87;;
16727;SDS011;8482;54.396;18.590;2023-11-21T07:26:33;4.63;;;2.13;;
16727;SDS011;8482;54.396;18.590;2023-11-21T07:29:00;4.73;;;2.13;;
16727;SDS011;8482;54.396;18.590;2023-11-21T07:31:31;4.47;;;1.70;;
16727;SDS011;8482;54.396;18.590;2023-11-21T07:33:59;3.80;;;1.83;;
16727;SDS011;8482;54.396;18.590;2023-11-21T07:36:26;4.30;;;1.90;;
16727;SDS011;8482;54.396;18.590;2023-11-21T07:38:52;3.70;;;1.90;;
16727;SDS011;8482;54.396;18.590;2023-11-21T07:41:19;2.80;;;1.70;;
16727;SDS011;8482;54.396;18.590;2023-11-21T07:43:45;3.73;;;1.80;;
16727;SDS011;8482;54.396;18.590;2023-11-21T07:46:12;3.70;;;1.90;;
16727;SDS011;8482;54.396;18.590;2023-11-21T07:48:39;3.17;;;1.70;;
16727;SDS011;8482;54.396;18.590;2023-11-21T07:51:07;3.47;;;1.80;;
16727;SDS011;8482;54.396;18.590;2023-11-21T07:53:33;4.07;;;1.70;;
16727;SDS011;8482;54.396;18.590;2023-11-21T07:56:03;4.20;;;1.80;;
16727;SDS011;8482;54.396;18.590;2023-11-21T07:58:31;3.47;;;1.90;;
16727;SDS011;8482;54.396;18.590;2023-11-21T08:00:58;3.77;;;1.50;;
16727;SDS011;8482;54.396;18.590;2023-11-21T08:03:25;3.83;;;1.70;;
16727;SDS011;8482;54.396;18.590;2023-11-21T08:05:57;4.27;;;2.17;;
16727;SDS011;8482;54.396;18.590;2023-11-21T08:08:24;4.20;;;2.00;;
16727;SDS011;8482;54.396;18.590;2023-11-21T08:10:51;6.07;;;2.30;;
16727;SDS011;8482;54.396;18.590;2023-11-21T08:13:24;5.17;;;1.87;;
16727;SDS011;8482;54.396;18.590;2023-11-21T08:15:55;3.87;;;2.17;;
16727;SDS011;8482;54.396;18.590;2023-11-21T08:18:26;3.27;;;1.67;;
16727;SDS011;8482;54.396;18.590;2023-11-21T08:20:54;3.17;;;1.90;;
16727;SDS011;8482;54.396;18.590;2023-11-21T08:23:20;4.40;;;1.80;;
16727;SDS011;8482;54.396;18.590;2023-11-21T08:25:50;3.33;;;1.70;;
16727;SDS011;8482;54.396;18.590;2023-11-21T08:28:17;4.73;;;2.23;;
16727;SDS011;8482;54.396;18.590;2023-11-21T08:30:44;2.70;;;1.60;;
16727;SDS011;8482;54.396;18.590;2023-11-21T08:33:10;3.63;;;1.83;;
16727;SDS011;8482;54.396;18.590;2023-11-21T08:35:37;3.27;;;1.60;;
16727;SDS011;8482;54.396;18.590;2023-11-21T08:38:03;3.80;;;1.70;;
16727;SDS011;8482;54.396;18.590;2023-11-21T08:40:29;5.60;;;1.80;;
16727;SDS011;8482;54.396;18.590;2023-11-21T08:42:55;3.93;;;1.80;;
16727;SDS011;8482;54.396;18.590;2023-11-21T08:45:23;4.70;;;1.83;;
16727;SDS011;8482;54.396;18.590;2023-11-21T08:47:53;7.57;;;2.33;;
16727;SDS011;8482;54.396;18.590;2023-11-21T08:50:19;8.93;;;2.63;;
16727;SDS011;8482;54.396;18.590;2023-11-21T08:52:45;8.03;;;2.47;;
16727;SDS011;8482;54.396;18.590;2023-11-21T08:55:11;5.63;;;2.03;;
16727;SDS011;8482;54.396;18.590;2023-11-21T08:57:37;3.53;;;1.90;;
16727;SDS011;8482;54.396;18.590;2023-11-21T09:00:06;5.83;;;2.30;;
16727;SDS011;8482;54.396;18.590;2023-11-21T09:02:39;7.37;;;2.40;;
16727;SDS011;8482;54.396;18.590;2023-11-21T09:05:07;10.73;;;2.40;;
16727;SDS011;8482;54.396;18.590;2023-11-21T09:07:38;4.70;;;1.97;;
16727;SDS011;8482;54.396;18.590;2023-11-21T09:10:06;6.80;;;2.13;;
16727;SDS011;8482;54.396;18.590;2023-11-21T09:12:34;4.50;;;1.70;;
16727;SDS011;8482;54.396;18.590;2023-11-21T09:15:05;4.27;;;1.93;;
16727;SDS011;8482;54.396;18.590;2023-11-21T09:17:33;3.47;;;1.83;;
16727;SDS011;8482;54.396;18.590;2023-11-21T09:19:59;2.93;;;1.43;;
16727;SDS011;8482;54.396;18.590;2023-11-21T09:22:25;4.60;;;1.50;;
16727;SDS011;8482;54.396;18.590;2023-11-21T09:24:52;4.07;;;1.80;;
16727;SDS011;8482;54.396;18.590;2023-11-21T09:27:18;3.53;;;1.33;;
16727;SDS011;8482;54.396;18.590;2023-11-21T09:29:44;4.70;;;1.93;;
16727;SDS011;8482;54.396;18.590;2023-11-21T09:32:12;5.07;;;1.90;;
16727;SDS011;8482;54.396;18.590;2023-11-21T09:34:41;7.23;;;1.97;;
16727;SDS011;8482;54.396;18.590;2023-11-21T09:37:07;3.53;;;1.90;;
16727;SDS011;8482;54.396;18.590;2023-11-21T09:39:33;2.70;;;1.60;;
16727;SDS011;8482;54.396;18.590;2023-11-21T09:42:14;3.30;;;1.40;;
16727;SDS011;8482;54.396;18.590;2023-11-21T09:47:33;3.00;;;1.50;;
16727;SDS011;8482;54.396;18.590;2023-11-21T09:50:04;3.60;;;1.40;;
16727;SDS011;8482;54.396;18.590;2023-11-21T09:52:35;4.53;;;1.70;;
16727;SDS011;8482;54.396;18.590;2023-11-21T09:55:13;5.83;;;2.03;;
16727;SDS011;8482;54.396;18.590;2023-11-21T09:57:47;3.03;;;1.50;;
16727;SDS011;8482;54.396;18.590;2023-11-21T10:00:16;3.57;;;1.73;;
16727;SDS011;8482;54.396;18.590;2023-11-21T10:02:45;2.50;;;1.20;;
16727;SDS011;8482;54.396;18.590;2023-11-21T10:05:14;2.53;;;1.40;;
16727;SDS011;8482;54.396;18.590;2023-11-21T10:07:43;2.67;;;1.43;;
16727;SDS011;8482;54.396;18.590;2023-11-21T10:10:13;3.93;;;1.60;;
16727;SDS011;8482;54.396;18.590;2023-11-21T10:12:45;4.77;;;1.80;;
16727;SDS011;8482;54.396;18.590;2023-11-21T10:15:21;3.97;;;1.67;;
16727;SDS011;8482;54.396;18.590;2023-11-21T10:17:50;5.40;;;1.90;;
16727;SDS011;8482;54.396;18.590;2023-11-21T10:20:19;3.80;;;1.70;;
16727;SDS011;8482;54.396;18.590;2023-11-21T10:22:45;4.77;;;1.70;;
16727;SDS011;8482;54.396;18.590;2023-11-21T10:25:12;3.40;;;1.90;;
16727;SDS011;8482;54.396;18.590;2023-11-21T10:27:42;2.97;;;1.43;;
16727;SDS011;8482;54.396;18.590;2023-11-21T10:30:08;3.23;;;1.40;;
16727;SDS011;8482;54.396;18.590;2023-11-21T10:32:37;3.87;;;1.73;;
16727;SDS011;8482;54.396;18.590;2023-11-21T10:35:08;3.22;;;1.70;;
16727;SDS011;8482;54.396;18.590;2023-11-21T10:37:36;2.77;;;1.70;;
16727;SDS011;8482;54.396;18.590;2023-11-21T10:40:11;3.70;;;1.73;;
16727;SDS011;8482;54.396;18.590;2023-11-21T10:42:40;3.57;;;1.77;;
16727;SDS011;8482;54.396;18.590;2023-11-21T10:45:07;3.53;;;1.60;;
16727;SDS011;8482;54.396;18.590;2023-11-21T10:47:39;2.60;;;1.50;;
16727;SDS011;8482;54.396;18.590;2023-11-21T10:50:07;3.97;;;1.70;;
16727;SDS011;8482;54.396;18.590;2023-11-21T10:52:42;3.13;;;1.20;;
16727;SDS011;8482;54.396;18.590;2023-11-21T10:55:18;3.30;;;1.80;;
16727;SDS011;8482;54.396;18.590;2023-11-21T10:57:48;2.43;;;1.37;;
16727;SDS011;8482;54.396;18.590;2023-11-21T11:00:17;4.27;;;1.60;;
16727;SDS011;8482;54.396;18.590;2023-11-21T11:02:46;3.97;;;1.70;;
16727;SDS011;8482;54.396;18.590;2023-11-21T11:05:16;5.23;;;1.60;;
16727;SDS011;8482;54.396;18.590;2023-11-21T11:07:47;2.97;;;1.40;;
16727;SDS011;8482;54.396;18.590;2023-11-21T11:10:20;2.30;;;1.20;;
16727;SDS011;8482;54.396;18.590;2023-11-21T11:12:48;3.53;;;1.50;;
16727;SDS011;8482;54.396;18.590;2023-11-21T11:15:15;2.83;;;1.50;;
16727;SDS011;8482;54.396;18.590;2023-11-21T11:17:42;2.27;;;1.30;;
16727;SDS011;8482;54.396;18.590;2023-11-21T11:20:10;2.73;;;1.30;;
16727;SDS011;8482;54.396;18.590;2023-11-21T11:28:14;2.50;;;1.37;;
16727;SDS011;8482;54.396;18.590;2023-11-21T11:30:55;2.63;;;1.50;;
16727;SDS011;8482;54.396;18.590;2023-11-21T11:33:38;2.87;;;1.37;;
16727;SDS011;8482;54.396;18.590;2023-11-21T11:39:02;2.73;;;1.70;;
16727;SDS011;8482;54.396;18.590;2023-11-21T11:41:31;3.87;;;1.47;;
16727;SDS011;8482;54.396;18.590;2023-11-21T11:44:00;3.13;;;1.50;;
16727;SDS011;8482;54.396;18.590;2023-11-21T11:46:47;4.27;;;1.50;;
16727;SDS011;8482;54.396;18.590;2023-11-21T11:49:24;2.90;;;1.40;;
16727;SDS011;8482;54.396;18.590;2023-11-21T11:55:02;3.00;;;1.20;;
16727;SDS011;8482;54.396;18.590;2023-11-21T11:57:33;4.47;;;1.50;;
16727;SDS011;8482;54.396;18.590;2023-11-21T12:00:13;4.15;;;1.80;;
16727;SDS011;8482;54.396;18.590;2023-11-21T12:02:45;2.53;;;1.53;;
16727;SDS011;8482;54.396;18.590;2023-11-21T12:05:17;3.77;;;2.27;;
16727;SDS011;8482;54.396;18.590;2023-11-21T12:07:52;3.87;;;1.90;;
16727;SDS011;8482;54.396;18.590;2023-11-21T12:10:26;2.53;;;1.30;;
16727;SDS011;8482;54.396;18.590;2023-11-21T12:13:01;2.93;;;1.40;;
16727;SDS011;8482;54.396;18.590;2023-11-21T12:15:33;3.80;;;1.47;;
16727;SDS011;8482;54.396;18.590;2023-11-21T12:18:00;3.37;;;1.67;;
16727;SDS011;8482;54.396;18.590;2023-11-21T12:20:27;1.83;;;1.10;;
16727;SDS011;8482;54.396;18.590;2023-11-21T12:22:54;3.58;;;1.50;;
16727;SDS011;8482;54.396;18.590;2023-11-21T12:25:28;2.57;;;1.37;;
16727;SDS011;8482;54.396;18.590;2023-11-21T12:27:57;3.10;;;1.60;;
16727;SDS011;8482;54.396;18.590;2023-11-21T12:30:26;2.73;;;1.30;;
16727;SDS011;8482;54.396;18.590;2023-11-21T12:32:57;2.38;;;1.10;;
16727;SDS011;8482;54.396;18.590;2023-11-21T12:35:26;2.37;;;1.40;;
16727;SDS011;8482;54.396;18.590;2023-11-21T12:37:55;3.70;;;1.30;;
16727;SDS011;8482;54.396;18.590;2023-11-21T12:40:24;3.10;;;1.70;;
16727;SDS011;8482;54.396;18.590;2023-11-21T12:42:55;2.17;;;1.20;;
16727;SDS011;8482;54.396;18.590;2023-11-21T12:45:41;2.97;;;1.50;;
16727;SDS011;8482;54.396;18.590;2023-11-21T12:48:13;2.60;;;1.33;;
16727;SDS011;8482;54.396;18.590;2023-11-21T12:50:40;3.10;;;1.47;;
16727;SDS011;8482;54.396;18.590;2023-11-21T12:53:08;1.90;;;1.20;;
16727;SDS011;8482;54.396;18.590;2023-11-21T12:55:41;2.70;;;1.40;;
16727;SDS011;8482;54.396;18.590;2023-11-21T12:58:15;3.40;;;1.40;;
16727;SDS011;8482;54.396;18.590;2023-11-21T13:03:14;3.03;;;1.50;;
16727;SDS011;8482;54.396;18.590;2023-11-21T13:05:44;3.20;;;1.40;;
16727;SDS011;8482;54.396;18.590;2023-11-21T13:08:15;2.70;;;1.27;;
16727;SDS011;8482;54.396;18.590;2023-11-21T13:10:44;3.13;;;1.80;;
16727;SDS011;8482;54.396;18.590;2023-11-21T13:13:14;3.53;;;1.75;;
16727;SDS011;8482;54.396;18.590;2023-11-21T13:16:02;3.03;;;1.47;;
16727;SDS011;8482;54.396;18.590;2023-11-21T13:18:31;3.45;;;1.85;;
16727;SDS011;8482;54.396;18.590;2023-11-21T13:20:59;3.20;;;1.53;;
16727;SDS011;8482;54.396;18.590;2023-11-21T13:23:34;3.50;;;1.67;;
16727;SDS011;8482;54.396;18.590;2023-11-21T13:26:04;3.33;;;1.60;;
16727;SDS011;8482;54.396;18.590;2023-11-21T13:28:31;3.23;;;1.70;;
16727;SDS011;8482;54.396;18.590;2023-11-21T13:31:01;4.17;;;1.80;;
16727;SDS011;8482;54.396;18.590;2023-11-21T13:33:45;4.87;;;2.00;;
16727;SDS011;8482;54.396;18.590;2023-11-21T13:36:21;3.77;;;1.80;;
16727;SDS011;8482;54.396;18.590;2023-11-21T13:38:49;3.80;;;1.83;;
16727;SDS011;8482;54.396;18.590;2023-11-21T13:41:17;3.87;;;1.80;;
16727;SDS011;8482;54.396;18.590;2023-11-21T13:43:43;3.40;;;1.87;;
16727;SDS011;8482;54.396;18.590;2023-11-21T13:46:15;4.40;;;1.97;;
16727;SDS011;8482;54.396;18.590;2023-11-21T13:48:46;5.13;;;2.07;;
16727;SDS011;8482;54.396;18.590;2023-11-21T13:51:18;3.87;;;1.80;;
16727;SDS011;8482;54.396;18.590;2023-11-21T13:53:46;3.17;;;1.90;;
16727;SDS011;8482;54.396;18.590;2023-11-21T13:56:15;3.10;;;1.70;;
16727;SDS011;8482;54.396;18.590;2023-11-21T13:58:49;4.90;;;1.80;;
16727;SDS011;8482;54.396;18.590;2023-11-21T14:01:19;3.00;;;1.63;;
16727;SDS011;8482;54.396;18.590;2023-11-21T14:03:57;3.57;;;1.60;;
16727;SDS011;8482;54.396;18.590;2023-11-21T14:06:36;4.30;;;1.87;;
16727;SDS011;8482;54.396;18.590;2023-11-21T14:09:12;3.17;;;1.60;;
16727;SDS011;8482;54.396;18.590;2023-11-21T14:11:53;3.63;;;1.50;;
16727;SDS011;8482;54.396;18.590;2023-11-21T14:14:22;3.80;;;1.57;;
16727;SDS011;8482;54.396;18.590;2023-11-21T14:16:51;2.70;;;1.40;;
16727;SDS011;8482;54.396;18.590;2023-11-21T14:19:17;3.03;;;1.40;;
16727;SDS011;8482;54.396;18.590;2023-11-21T14:21:44;2.03;;;1.10;;
16727;SDS011;8482;54.396;18.590;2023-11-21T14:24:11;3.10;;;1.30;;
16727;SDS011;8482;54.396;18.590;2023-11-21T14:26:41;1.70;;;1.10;;
16727;SDS011;8482;54.396;18.590;2023-11-21T14:29:10;2.93;;;1.27;;
16727;SDS011;8482;54.396;18.590;2023-11-21T14:31:39;2.13;;;1.30;;
16727;SDS011;8482;54.396;18.590;2023-11-21T14:34:06;2.87;;;1.20;;
16727;SDS011;8482;54.396;18.590;2023-11-21T14:36:36;2.33;;;1.00;;
16727;SDS011;8482;54.396;18.590;2023-11-21T14:39:02;2.33;;;1.17;;
16727;SDS011;8482;54.396;18.590;2023-11-21T14:41:32;2.33;;;1.30;;
16727;SDS011;8482;54.396;18.590;2023-11-21T14:44:00;2.63;;;1.43;;
16727;SDS011;8482;54.396;18.590;2023-11-21T14:46:28;2.53;;;1.10;;
16727;SDS011;8482;54.396;18.590;2023-11-21T14:48:54;2.47;;;1.30;;
16727;SDS011;8482;54.396;18.590;2023-11-21T14:51:25;2.03;;;1.27;;
16727;SDS011;8482;54.396;18.590;2023-11-21T14:53:58;1.83;;;1.10;;
16727;SDS011;8482;54.396;18.590;2023-11-21T14:56:34;2.73;;;1.03;;
16727;SDS011;8482;54.396;18.590;2023-11-21T14:59:03;1.50;;;1.00;;
16727;SDS011;8482;54.396;18.590;2023-11-21T15:01:37;2.37;;;1.30;;
16727;SDS011;8482;54.396;18.590;2023-11-21T15:04:18;3.00;;;1.20;;
16727;SDS011;8482;54.396;18.590;2023-11-21T15:07:01;1.67;;;0.90;;
16727;SDS011;8482;54.396;18.590;2023-11-21T15:09:28;1.73;;;1.20;;
16727;SDS011;8482;54.396;18.590;2023-11-21T15:11:58;1.90;;;1.03;;